createdAt,value
2022-10-31T00:00:32.285Z,101436.06
2022-10-31T00:02:58.971Z,101441.13
2022-10-31T00:05:25.610Z,101443.38
2022-10-31T00:07:55.118Z,101443.34
2022-10-31T00:10:21.505Z,101448.44
2022-10-31T00:12:47.911Z,101440.81
2022-10-31T00:15:14.304Z,101445.03
2022-10-31T00:17:40.695Z,101445.03
2022-10-31T00:20:25.672Z,101440.56
2022-10-31T00:22:52.058Z,101449.22
2022-10-31T00:25:18.464Z,101460.16
2022-10-31T00:27:44.854Z,101461.88
2022-10-31T00:30:11.565Z,101461.84
2022-10-31T00:32:37.962Z,101460.44
2022-10-31T00:35:04.674Z,101464.63
2022-10-31T00:37:31.074Z,101463.19
2022-10-31T00:39:57.544Z,101466.88
2022-10-31T00:42:23.986Z,101466.88
2022-10-31T00:44:50.360Z,101467.16
2022-10-31T00:47:16.772Z,101474.19
2022-10-31T00:49:43.165Z,101470.56
2022-10-31T00:52:10.179Z,101479.50
2022-10-31T00:54:37.291Z,101479.50
2022-10-31T00:57:03.944Z,101481.72
2022-10-31T00:59:30.579Z,101484.25
2022-10-31T01:01:57.174Z,101484.81
2022-10-31T01:04:23.745Z,101489.00
2022-10-31T01:06:50.134Z,101481.16
2022-10-31T01:09:16.770Z,101487.59
2022-10-31T01:11:43.234Z,101488.72
2022-10-31T01:14:10.524Z,101482.81
2022-10-31T01:16:36.913Z,101481.63
2022-10-31T01:19:03.956Z,101488.13
2022-10-31T01:21:30.587Z,101482.47
2022-10-31T01:24:00.602Z,101483.38
2022-10-31T01:26:30.058Z,101492.84
2022-10-31T01:28:59.506Z,101492.81
2022-10-31T01:31:30.257Z,101488.03
2022-10-31T01:33:57.285Z,101487.19
2022-10-31T01:36:29.940Z,101491.41
2022-10-31T01:38:58.617Z,101492.19
2022-10-31T01:41:27.921Z,101491.66
2022-10-31T01:43:57.808Z,101496.69
2022-10-31T01:46:54.772Z,101497.50
2022-10-31T01:49:54.851Z,101492.53
2022-10-31T01:52:27.467Z,101501.22
2022-10-31T01:55:00.670Z,101493.59
2022-10-31T01:57:28.130Z,101496.34
2022-10-31T01:59:59.236Z,101502.84
2022-10-31T02:02:28.515Z,101497.75
2022-10-31T02:04:55.524Z,101502.53
2022-10-31T02:07:27.629Z,101494.13
2022-10-31T02:09:58.596Z,101501.97
2022-10-31T02:12:26.062Z,101499.38
2022-10-31T02:15:00.294Z,101495.16
2022-10-31T02:17:27.274Z,101493.50
2022-10-31T02:20:05.822Z,101494.91
2022-10-31T02:22:49.440Z,101490.94
2022-10-31T02:25:57.233Z,101497.88
2022-10-31T02:28:34.133Z,101499.22
2022-10-31T02:31:26.377Z,101500.69
2022-10-31T02:33:58.475Z,101502.66
2022-10-31T02:36:31.144Z,101502.94
2022-10-31T02:39:11.574Z,101516.69
2022-10-31T02:42:18.297Z,101520.03
2022-10-31T02:45:06.306Z,101522.56
2022-10-31T02:47:39.584Z,101523.63
2022-10-31T02:50:11.649Z,101520.59
2022-10-31T02:52:39.195Z,101514.69
2022-10-31T02:55:23.990Z,101517.50
2022-10-31T02:57:57.579Z,101517.78
2022-10-31T03:00:24.301Z,101516.94
2022-10-31T03:03:08.645Z,101521.44
2022-10-31T03:05:53.784Z,101525.88
2022-10-31T03:08:35.566Z,101533.16
2022-10-31T03:11:06.012Z,101523.63
2022-10-31T03:13:48.229Z,101523.34
2022-10-31T03:16:38.082Z,101523.31
2022-10-31T03:19:21.368Z,101538.09
2022-10-31T03:21:53.677Z,101533.63
2022-10-31T03:24:24.696Z,101540.91
2022-10-31T03:26:55.665Z,101549.31
2022-10-31T03:29:27.348Z,101544.03
2022-10-31T03:31:58.297Z,101555.19
2022-10-31T03:34:24.950Z,101548.97
2022-10-31T03:36:54.530Z,101550.72
2022-10-31T03:39:23.728Z,101556.03
2022-10-31T03:41:57.201Z,101556.03
2022-10-31T03:44:27.970Z,101557.16
2022-10-31T03:47:00.562Z,101555.19
2022-10-31T03:49:28.151Z,101565.22
2022-10-31T03:52:10.467Z,101562.22
2022-10-31T03:54:46.116Z,101569.97
2022-10-31T03:57:37.000Z,101574.44
2022-10-31T04:00:08.975Z,101573.03
2022-10-31T04:03:10.852Z,101569.94
2022-10-31T04:05:40.057Z,101573.03
2022-10-31T04:08:12.900Z,101579.50
2022-10-31T04:10:41.899Z,101576.22
2022-10-31T04:13:13.224Z,101574.28
2022-10-31T04:15:46.789Z,101569.53
2022-10-31T04:18:13.506Z,101568.75
2022-10-31T04:20:42.340Z,101584.03
2022-10-31T04:23:23.393Z,101580.00
2022-10-31T04:25:50.896Z,101579.81
2022-10-31T04:30:50.198Z,101590.91
2022-10-31T04:33:17.178Z,101589.53
2022-10-31T04:35:45.891Z,101585.00
2022-10-31T04:38:12.310Z,101586.19
2022-10-31T04:40:39.733Z,101589.47
2022-10-31T04:43:24.828Z,101588.09
2022-10-31T04:45:51.472Z,101587.81
2022-10-31T04:48:18.996Z,101590.66
2022-10-31T04:50:45.460Z,101596.91
2022-10-31T04:53:13.361Z,101598.13
2022-10-31T04:56:01.502Z,101591.19
2022-10-31T04:58:35.850Z,101590.41
2022-10-31T05:01:04.554Z,101584.00
2022-10-31T05:03:32.853Z,101586.56
2022-10-31T05:06:24.516Z,101595.81
2022-10-31T05:08:51.520Z,101596.69
2022-10-31T05:11:17.988Z,101592.78
2022-10-31T05:13:44.651Z,101596.75
2022-10-31T05:16:11.048Z,101597.38
2022-10-31T05:19:09.264Z,101599.91
2022-10-31T05:21:54.168Z,101598.78
2022-10-31T05:24:22.632Z,101595.16
2022-10-31T05:26:49.956Z,101598.22
2022-10-31T05:29:16.542Z,101604.03
2022-10-31T05:31:43.955Z,101602.03
2022-10-31T05:34:21.055Z,101605.16
2022-10-31T05:37:10.118Z,101604.38
2022-10-31T05:39:37.155Z,101603.22
2022-10-31T05:42:12.073Z,101604.03
2022-10-31T05:44:38.500Z,101607.16
2022-10-31T05:47:14.094Z,101600.69
2022-10-31T05:49:55.446Z,101619.47
2022-10-31T05:52:40.745Z,101610.81
2022-10-31T05:55:17.108Z,101612.25
2022-10-31T05:57:58.312Z,101610.88
2022-10-31T06:00:26.670Z,101616.16
2022-10-31T06:03:00.363Z,101626.53
2022-10-31T06:05:39.089Z,101622.63
2022-10-31T06:08:05.952Z,101620.75
2022-10-31T06:10:32.396Z,101625.44
2022-10-31T06:12:58.924Z,101633.28
2022-10-31T06:15:38.837Z,101625.13
2022-10-31T06:18:07.487Z,101629.44
2022-10-31T06:20:37.276Z,101634.75
2022-10-31T06:23:05.420Z,101631.03
2022-10-31T06:25:33.995Z,101638.59
2022-10-31T06:28:00.809Z,101640.59
2022-10-31T06:30:36.233Z,101632.13
2022-10-31T06:33:04.815Z,101643.63
2022-10-31T06:35:32.571Z,101650.09
2022-10-31T06:38:00.659Z,101644.28
2022-10-31T06:40:33.788Z,101656.38
2022-10-31T06:43:17.519Z,101659.16
2022-10-31T06:45:47.528Z,101657.94
2022-10-31T06:48:26.507Z,101663.34
2022-10-31T06:51:16.469Z,101665.09
2022-10-31T06:53:42.877Z,101669.38
2022-10-31T06:56:11.379Z,101665.81
2022-10-31T06:58:43.098Z,101669.47
2022-10-31T07:01:11.551Z,101667.59
2022-10-31T07:03:39.123Z,101669.31
2022-10-31T07:06:06.314Z,101682.50
2022-10-31T07:08:33.361Z,101679.19
2022-10-31T07:10:59.789Z,101677.22
2022-10-31T07:13:28.454Z,101685.94
2022-10-31T07:16:07.529Z,101689.34
2022-10-31T07:18:35.767Z,101684.88
2022-10-31T07:21:02.495Z,101693.03
2022-10-31T07:23:28.956Z,101678.44
2022-10-31T07:26:13.870Z,101679.56
2022-10-31T07:28:46.871Z,101677.59
2022-10-31T07:31:13.757Z,101682.69
2022-10-31T07:33:40.512Z,101684.97
2022-10-31T07:36:38.809Z,101683.56
2022-10-31T07:39:05.217Z,101698.47
2022-10-31T07:41:34.503Z,101692.84
2022-10-31T07:44:00.932Z,101695.38
2022-10-31T07:46:30.025Z,101698.19
2022-10-31T07:49:15.115Z,101700.72
2022-10-31T07:52:01.492Z,101701.84
2022-10-31T07:54:27.856Z,101702.69
2022-10-31T07:56:54.241Z,101699.03
2022-10-31T07:59:20.731Z,101704.38
2022-10-31T08:01:48.368Z,101705.75
2022-10-31T08:04:46.625Z,101722.66
2022-10-31T08:10:17.090Z,101734.47
2022-10-31T08:12:43.494Z,101732.78
2022-10-31T08:15:10.487Z,101722.94
2022-10-31T08:17:37.869Z,101724.91
2022-10-31T08:20:07.534Z,101717.88
2022-10-31T08:22:42.725Z,101707.16
2022-10-31T08:25:10.170Z,101718.41
2022-10-31T08:27:37.261Z,101717.59
2022-10-31T08:30:04.054Z,101719.56
2022-10-31T08:33:13.981Z,101723.22
2022-10-31T08:35:59.693Z,101724.34
2022-10-31T08:38:48.096Z,101716.47
2022-10-31T08:41:15.020Z,101723.22
2022-10-31T08:43:41.728Z,101725.72
2022-10-31T08:46:08.142Z,101716.13
2022-10-31T08:48:34.910Z,101732.16
2022-10-31T08:51:03.489Z,101732.69
2022-10-31T08:53:30.616Z,101733.81
2022-10-31T08:56:18.997Z,101727.63
2022-10-31T08:58:45.641Z,101736.06
2022-10-31T09:01:12.518Z,101734.63
2022-10-31T09:03:39.024Z,101731.56
2022-10-31T09:06:09.634Z,101739.13
2022-10-31T09:08:37.354Z,101738.00
2022-10-31T09:11:04.894Z,101734.34
2022-10-31T09:13:59.999Z,101735.44
2022-10-31T09:16:44.777Z,101736.53
2022-10-31T09:19:17.934Z,101743.56
2022-10-31T09:21:46.386Z,101739.31
2022-10-31T09:24:12.762Z,101742.38
2022-10-31T09:26:41.710Z,101731.63
2022-10-31T09:29:15.162Z,101735.84
2022-10-31T09:31:45.075Z,101753.03
2022-10-31T09:34:26.639Z,101750.16
2022-10-31T09:37:05.151Z,101756.31
2022-10-31T09:39:34.452Z,101756.00
2022-10-31T09:42:32.381Z,101754.78
2022-10-31T09:45:24.236Z,101752.78
2022-10-31T09:48:05.756Z,101754.72
2022-10-31T09:50:43.885Z,101760.91
2022-10-31T09:53:40.604Z,101763.16
2022-10-31T09:56:18.676Z,101761.66
2022-10-31T09:58:48.525Z,101755.72
2022-10-31T10:01:31.358Z,101744.63
2022-10-31T10:04:20.859Z,101746.59
2022-10-31T10:07:12.715Z,101752.72
2022-10-31T10:10:02.836Z,101750.75
2022-10-31T10:13:13.779Z,101746.44
2022-10-31T10:16:07.701Z,101749.41
2022-10-31T10:18:47.082Z,101742.00
2022-10-31T10:21:45.576Z,101745.06
2022-10-31T10:24:11.901Z,101737.09
2022-10-31T10:26:43.852Z,101728.66
2022-10-31T10:29:34.514Z,101725.97
2022-10-31T10:32:07.169Z,101733.00
2022-10-31T10:34:42.678Z,101738.09
2022-10-31T10:37:33.811Z,101731.78
2022-10-31T10:40:21.343Z,101736.84
2022-10-31T10:43:19.635Z,101733.41
2022-10-31T10:46:11.815Z,101732.47
2022-10-31T10:48:45.454Z,101730.16
2022-10-31T10:54:43.829Z,101724.34
2022-10-31T10:57:22.918Z,101724.34
2022-10-31T10:59:50.155Z,101726.03
2022-10-31T11:02:25.650Z,101722.78
2022-10-31T11:04:54.983Z,101725.81
2022-10-31T11:07:21.993Z,101723.47
2022-10-31T11:09:48.592Z,101727.94
2022-10-31T11:12:32.168Z,101719.56
2022-10-31T11:15:01.303Z,101711.06
2022-10-31T11:17:32.142Z,101716.38
2022-10-31T11:20:16.278Z,101719.72
2022-10-31T11:22:48.005Z,101724.06
2022-10-31T11:25:20.364Z,101719.66
2022-10-31T11:27:47.452Z,101721.03
2022-10-31T11:30:15.246Z,101719.50
2022-10-31T11:32:50.090Z,101716.97
2022-10-31T11:35:19.487Z,101716.97
2022-10-31T11:37:49.090Z,101726.59
2022-10-31T11:40:18.948Z,101722.19
2022-10-31T11:42:46.353Z,101718.81
2022-10-31T11:45:28.477Z,101710.88
2022-10-31T11:47:59.897Z,101714.44
2022-10-31T11:50:33.900Z,101710.25
2022-10-31T11:53:01.200Z,101707.09
2022-10-31T11:55:34.973Z,101709.25
2022-10-31T11:58:02.031Z,101720.94
2022-10-31T12:00:31.197Z,101713.00
2022-10-31T12:03:27.512Z,101706.50
2022-10-31T12:06:02.204Z,101709.41
2022-10-31T12:08:34.548Z,101706.13
2022-10-31T12:11:13.038Z,101706.13
2022-10-31T12:14:03.864Z,101697.16
2022-10-31T12:16:51.341Z,101686.03
2022-10-31T12:19:37.220Z,101698.63
2022-10-31T12:22:46.126Z,101690.69
2022-10-31T12:25:18.472Z,101689.06
2022-10-31T12:28:12.156Z,101689.38
2022-10-31T12:31:03.284Z,101689.91
2022-10-31T12:33:55.971Z,101687.69
2022-10-31T12:36:40.829Z,101684.13
2022-10-31T12:39:19.404Z,101683.81
2022-10-31T12:41:47.367Z,101682.59
2022-10-31T12:44:33.887Z,101678.75
2022-10-31T12:47:26.772Z,101676.19
2022-10-31T12:50:23.812Z,101675.22
2022-10-31T12:53:02.517Z,101677.38
2022-10-31T12:55:44.056Z,101680.31
2022-10-31T12:58:22.677Z,101679.16
2022-10-31T13:00:58.043Z,101673.78
2022-10-31T13:03:36.578Z,101659.75
2022-10-31T13:06:08.950Z,101669.97
2022-10-31T13:08:42.154Z,101672.59
2022-10-31T13:11:17.504Z,101673.41
2022-10-31T13:13:52.989Z,101666.91
2022-10-31T13:16:35.506Z,101671.97
2022-10-31T13:19:18.359Z,101672.94
2022-10-31T13:22:03.932Z,101670.72
2022-10-31T13:24:42.920Z,101669.56
2022-10-31T13:27:30.488Z,101668.38
2022-10-31T13:30:17.097Z,101664.25
2022-10-31T13:33:00.528Z,101662.81
2022-10-31T13:35:27.043Z,101655.91
2022-10-31T13:38:17.584Z,101656.44
2022-10-31T13:40:53.827Z,101663.00
2022-10-31T13:43:31.285Z,101663.56
2022-10-31T13:45:57.690Z,101658.88
2022-10-31T13:48:40.132Z,101659.34
2022-10-31T13:51:11.505Z,101654.63
2022-10-31T13:53:46.305Z,101653.31
2022-10-31T13:56:25.606Z,101646.31
2022-10-31T13:59:01.020Z,101639.56
2022-10-31T14:01:29.980Z,101638.44
2022-10-31T14:04:12.718Z,101640.88
2022-10-31T14:06:43.222Z,101634.41
2022-10-31T14:09:24.602Z,101638.84
2022-10-31T14:11:51.921Z,101631.41
2022-10-31T14:14:20.257Z,101637.63
2022-10-31T14:16:55.634Z,101631.88
2022-10-31T14:19:23.018Z,101636.38
2022-10-31T14:21:51.253Z,101637.81
2022-10-31T14:24:23.478Z,101628.25
2022-10-31T14:27:04.545Z,101625.97
2022-10-31T14:29:34.565Z,101628.06
2022-10-31T14:32:13.726Z,101619.66
2022-10-31T14:34:51.496Z,101615.09
2022-10-31T14:37:56.262Z,101617.16
2022-10-31T14:40:32.685Z,101619.91
2022-10-31T14:43:25.858Z,101619.00
2022-10-31T14:46:08.005Z,101609.84
2022-10-31T14:49:00.443Z,101615.47
2022-10-31T14:51:40.539Z,101614.09
2022-10-31T14:54:14.152Z,101612.72
2022-10-31T14:56:49.244Z,101611.56
2022-10-31T14:59:19.562Z,101624.31
2022-10-31T15:01:57.706Z,101611.94
2022-10-31T15:04:27.001Z,101602.59
2022-10-31T15:07:05.212Z,101606.91
2022-10-31T15:09:34.351Z,101602.16
2022-10-31T15:12:01.930Z,101602.31
2022-10-31T15:14:31.282Z,101604.53
2022-10-31T15:16:59.138Z,101603.16
2022-10-31T15:19:29.103Z,101604.19
2022-10-31T15:21:57.889Z,101595.28
2022-10-31T15:24:31.283Z,101590.13
2022-10-31T15:27:03.809Z,101589.31
2022-10-31T15:29:32.173Z,101584.66
2022-10-31T15:32:02.566Z,101595.41
2022-10-31T15:34:38.985Z,101590.94
2022-10-31T15:37:10.149Z,101588.63
2022-10-31T15:39:36.558Z,101587.00
2022-10-31T15:42:03.016Z,101583.41
2022-10-31T15:44:35.973Z,101584.78
2022-10-31T15:47:06.203Z,101578.00
2022-10-31T15:49:42.973Z,101574.88
2022-10-31T15:52:18.194Z,101570.13
2022-10-31T15:54:48.702Z,101577.84
2022-10-31T15:57:15.467Z,101575.13
2022-10-31T15:59:49.653Z,101583.97
2022-10-31T16:02:21.859Z,101575.19
2022-10-31T16:04:51.420Z,101578.59
2022-10-31T16:07:23.143Z,101581.66
2022-10-31T16:09:54.394Z,101584.22
2022-10-31T16:12:22.899Z,101585.69
2022-10-31T16:14:51.415Z,101590.59
2022-10-31T16:17:22.105Z,101580.63
2022-10-31T16:20:06.613Z,101582.72
2022-10-31T16:22:37.421Z,101579.63
2022-10-31T16:25:27.227Z,101578.09
2022-10-31T16:27:56.339Z,101579.91
2022-10-31T16:30:26.289Z,101579.16
2022-10-31T16:33:02.533Z,101571.81
2022-10-31T16:35:39.623Z,101577.59
2022-10-31T16:38:06.402Z,101575.78
2022-10-31T16:40:33.849Z,101575.19
2022-10-31T16:43:01.378Z,101579.22
2022-10-31T16:45:32.119Z,101572.69
2022-10-31T16:48:07.471Z,101574.91
2022-10-31T16:50:34.059Z,101577.09
2022-10-31T16:53:13.346Z,101577.28
2022-10-31T16:55:47.149Z,101566.88
2022-10-31T16:58:18.049Z,101571.59
2022-10-31T17:00:44.485Z,101559.84
2022-10-31T17:03:11.514Z,101568.81
2022-10-31T17:05:39.462Z,101569.31
2022-10-31T17:08:06.058Z,101570.03
2022-10-31T17:10:32.801Z,101575.06
2022-10-31T17:13:00.638Z,101564.94
2022-10-31T17:15:28.904Z,101565.81
2022-10-31T17:17:55.622Z,101556.75
2022-10-31T17:20:27.911Z,101560.34
2022-10-31T17:22:55.077Z,101556.75
2022-10-31T17:25:23.962Z,101551.66
2022-10-31T17:27:51.381Z,101559.56
2022-10-31T17:30:19.422Z,101561.47
2022-10-31T17:32:46.993Z,101555.66
2022-10-31T17:35:14.909Z,101551.91
2022-10-31T17:37:42.896Z,101546.25
2022-10-31T17:40:10.806Z,101545.59
2022-10-31T17:42:38.501Z,101541.63
2022-10-31T17:45:06.695Z,101546.16
2022-10-31T17:47:33.714Z,101553.19
2022-10-31T17:50:00.310Z,101552.13
2022-10-31T17:52:26.845Z,101544.25
2022-10-31T17:54:53.256Z,101550.78
2022-10-31T17:57:19.682Z,101541.53
2022-10-31T17:59:46.074Z,101540.94
2022-10-31T18:02:12.666Z,101547.34
2022-10-31T18:04:40.911Z,101543.94
2022-10-31T18:07:07.924Z,101538.81
2022-10-31T18:09:34.723Z,101539.66
2022-10-31T18:12:01.105Z,101532.06
2022-10-31T18:14:29.363Z,101538.81
2022-10-31T18:16:55.757Z,101535.22
2022-10-31T18:19:22.189Z,101534.75
2022-10-31T18:21:48.577Z,101528.13
2022-10-31T18:24:15.001Z,101526.66
2022-10-31T18:26:41.376Z,101523.78
2022-10-31T18:29:07.837Z,101518.84
2022-10-31T18:31:34.218Z,101516.50
2022-10-31T18:34:00.642Z,101511.63
2022-10-31T18:36:27.225Z,101518.41
2022-10-31T18:38:53.661Z,101516.66
2022-10-31T18:41:20.379Z,101524.88
2022-10-31T18:43:46.978Z,101530.41
2022-10-31T18:46:15.375Z,101530.38
2022-10-31T18:48:43.208Z,101517.72
2022-10-31T18:51:11.336Z,101519.28
2022-10-31T18:53:37.976Z,101518.34
2022-10-31T18:56:08.994Z,101519.66
2022-10-31T18:58:35.669Z,101520.28
2022-10-31T19:01:12.900Z,101511.00
2022-10-31T19:03:40.493Z,101513.72
2022-10-31T19:06:08.157Z,101511.22
2022-10-31T19:08:34.671Z,101509.25
2022-10-31T19:11:07.008Z,101503.44
2022-10-31T19:13:34.518Z,101512.44
2022-10-31T19:16:12.082Z,101495.44
2022-10-31T19:18:39.627Z,101485.88
2022-10-31T19:21:11.832Z,101490.59
2022-10-31T19:23:38.830Z,101487.75
2022-10-31T19:26:05.517Z,101485.78
2022-10-31T19:28:33.544Z,101482.44
2022-10-31T19:31:00.163Z,101478.78
2022-10-31T19:33:33.395Z,101481.88
2022-10-31T19:36:11.367Z,101479.66
2022-10-31T19:38:42.932Z,101486.47
2022-10-31T19:41:16.018Z,101472.50
2022-10-31T19:43:43.027Z,101473.00
2022-10-31T19:46:22.475Z,101468.81
2022-10-31T19:48:54.665Z,101460.41
2022-10-31T19:51:21.881Z,101456.72
2022-10-31T19:53:49.729Z,101459.75
2022-10-31T19:56:21.448Z,101453.09
2022-10-31T19:58:48.527Z,101454.22
2022-10-31T20:01:20.385Z,101448.88
2022-10-31T20:03:47.427Z,101450.88
2022-10-31T20:06:32.175Z,101447.94
2022-10-31T20:09:00.660Z,101440.66
2022-10-31T20:11:28.531Z,101446.28
2022-10-31T20:13:56.370Z,101436.88
2022-10-31T20:16:23.699Z,101439.84
2022-10-31T20:18:50.136Z,101439.50
2022-10-31T20:21:19.921Z,101436.28
2022-10-31T20:23:47.525Z,101434.81
2022-10-31T20:26:17.102Z,101438.69
2022-10-31T20:28:43.869Z,101430.66
2022-10-31T20:31:13.436Z,101430.78
2022-10-31T20:33:39.880Z,101430.66
2022-10-31T20:36:07.990Z,101426.94
2022-10-31T20:38:37.002Z,101424.38
2022-10-31T20:41:05.122Z,101417.28
2022-10-31T20:43:33.312Z,101416.31
2022-10-31T20:46:05.329Z,101407.78
2022-10-31T20:48:32.243Z,101413.69
2022-10-31T20:51:07.150Z,101410.06
2022-10-31T20:53:34.197Z,101406.91
2022-10-31T20:56:07.240Z,101412.28
2022-10-31T20:58:35.036Z,101409.41
2022-10-31T21:01:01.752Z,101402.97
2022-10-31T21:03:28.207Z,101403.53
2022-10-31T21:06:00.075Z,101403.25
2022-10-31T21:08:28.455Z,101396.78
2022-10-31T21:10:55.365Z,101402.94
2022-10-31T21:13:22.110Z,101393.41
2022-10-31T21:15:48.793Z,101389.69
2022-10-31T21:18:15.207Z,101386.56
2022-10-31T21:20:43.922Z,101386.75
2022-10-31T21:23:11.666Z,101380.56
2022-10-31T21:25:42.308Z,101388.78
2022-10-31T21:28:10.610Z,101382.50
2022-10-31T21:30:42.083Z,101373.16
2022-10-31T21:33:08.649Z,101371.78
2022-10-31T21:35:35.397Z,101378.91
2022-10-31T21:38:02.306Z,101378.84
2022-10-31T21:40:29.157Z,101374.47
2022-10-31T21:42:56.489Z,101373.59
2022-10-31T21:45:23.210Z,101365.69
2022-10-31T21:47:50.282Z,101361.19
2022-10-31T21:50:17.582Z,101360.34
2022-10-31T21:52:44.174Z,101350.28
2022-10-31T21:55:10.596Z,101362.34
2022-10-31T21:57:37.110Z,101355.44
2022-10-31T22:00:08.925Z,101347.47
2022-10-31T22:02:36.472Z,101358.44
2022-10-31T22:05:03.824Z,101352.81
2022-10-31T22:07:31.973Z,101354.16
2022-10-31T22:09:58.361Z,101358.34
2022-10-31T22:12:25.243Z,101355.75
2022-10-31T22:14:51.809Z,101350.91
2022-10-31T22:17:18.204Z,101357.94
2022-10-31T22:19:44.591Z,101354.09
2022-10-31T22:22:12.165Z,101353.78
2022-10-31T22:24:38.598Z,101348.50
2022-10-31T22:27:05.093Z,101343.47
2022-10-31T22:29:31.479Z,101331.44
2022-10-31T22:31:59.725Z,101329.03
2022-10-31T22:34:28.113Z,101329.56
2022-10-31T22:36:55.207Z,101323.56
2022-10-31T22:39:21.609Z,101322.31
2022-10-31T22:41:48.020Z,101313.56
2022-10-31T22:44:14.414Z,101307.94
2022-10-31T22:46:40.847Z,101308.03
2022-10-31T22:49:11.861Z,101307.00
2022-10-31T22:51:39.206Z,101293.69
2022-10-31T22:54:09.381Z,101289.19
2022-10-31T22:56:35.944Z,101273.09
2022-10-31T22:59:02.965Z,101279.22
2022-10-31T23:01:32.244Z,101280.56
2022-10-31T23:03:59.045Z,101274.28
2022-10-31T23:06:28.095Z,101288.31
2022-10-31T23:08:55.299Z,101278.16
2022-10-31T23:11:25.184Z,101275.88
2022-10-31T23:14:09.652Z,101273.34
2022-10-31T23:16:37.839Z,101269.72
2022-10-31T23:19:07.875Z,101267.69
2022-10-31T23:21:54.866Z,101265.63
2022-10-31T23:24:31.757Z,101269.00
2022-10-31T23:27:06.117Z,101265.03
2022-10-31T23:29:44.107Z,101266.47
2022-10-31T23:32:20.999Z,101252.16
2022-10-31T23:34:49.203Z,101246.53
2022-10-31T23:37:16.834Z,101233.56
2022-10-31T23:39:43.242Z,101232.75
2022-10-31T23:42:10.106Z,101235.16
2022-10-31T23:44:36.593Z,101239.88
2022-10-31T23:47:03.421Z,101235.00
2022-10-31T23:49:29.858Z,101232.13
2022-10-31T23:51:59.417Z,101219.00
2022-10-31T23:54:26.503Z,101204.75
2022-10-31T23:56:54.078Z,101189.66
2022-10-31T23:59:22.710Z,101174.50
